AirNav   Air Wisconsin Up To $57,000 Bonus
 
 1213 users online  

12NK Westport Airport
Westport, New York, USA

GOING TO WESTPORT?


FAA INFORMATION EFFECTIVE 01 DECEMBER 2022

Location

FAA Identifier: 12NK
Lat/Long: 44-09-30.1900N 073-25-58.4560W
44-09.503167N 073-25.974267W
44.1583861,-73.4329044
(estimated)
Elevation: 276 ft. / 84.1 m (surveyed)
Variation: 15W (1985)
From city: 2 miles S of WESTPORT, NY
Time zone: UTC -5 (UTC -4 during Daylight Saving Time)
Zip code: 12993

Airport Operations

Airport use: Private use. Permission required prior to landing
Activation date: 10/1996
Control tower: no
ARTCC: BOSTON CENTER
FSS: BURLINGTON FLIGHT SERVICE STATION
Attendance: UNATNDD
Wind indicator: yes
Segmented circle: no

Airport Communications

UNICOM: 122.8
WX AWOS-3 at 6B0 (18 nm SE): 118.575 (802-388-0255)

Nearby radio navigation aids

VOR radial/distance  VOR name  Freq  Var
BTVr232/17.9BURLINGTON VOR/DME117.5015W

 
NDB name  Hdg/Dist  Freq  Var  ID
SMUTO338/34.122115WDYO -.. -.-- ---

Airport Services

Parking: tiedowns
Airframe service: NONE
Powerplant service: NONE
Bottled oxygen: NONE
Bulk oxygen: NONE

Runway Information

Runway 1/19

Dimensions: 2600 x 125 ft. / 792 x 38 m
Surface: turf, in good condition
RUNWAY 1  RUNWAY 19
Traffic pattern: leftleft

Airport Ownership and Management from official FAA records

Ownership: Privately-owned
Owner: WESTPORT AVIATION CORP
PO BOX 332
WESTPORT, NY 12993
Phone 518-962-4591
Manager: DAVE DANZEISEN JR
PO BOX 332
WESTPORT, NY 12993
Phone 518-962-4591

Additional Remarks

FOR CD CTC BURLINGTON APCH AT 802-657-4401, WHEN APCH CLSD CTC BOSTON ARTCC AT 603-879-6859.

Instrument Procedures

There are no published instrument procedures at 12NK.

Some nearby airports with instrument procedures:

4B6 - Ticonderoga Municipal Airport (17 nm S)
KBTV - Burlington International Airport (22 nm NE)
KLKP - Lake Placid Airport (24 nm W)
KPBG - Plattsburgh International Airport (30 nm N)
KSLK - Adirondack Regional Airport (36 nm NW)
 
Loc | Ops | Rwys | IFR | FBO | Links
Com | Nav | Svcs | Stats | Notes
Area around 12NK (Westport Airport)
 
Road maps at: MapQuest Bing Google
 
Aerial photo
No photo
 
Sectional chart

 
Airport distance calculator
Flying to Westport Airport? Find the distance to fly.

From to 12NK

Sunrise and sunset
Times for 01-Dec-2022
 Local
(UTC-5)
 Zulu
(UTC)
Morning civil twilight06:3711:37
Sunrise07:1012:10
Sunset16:1621:16
Evening civil twilight16:4821:48

Current date and time
Zulu (UTC)  02-Dec-2022 00:00:48
Local (UTC-5)  01-Dec-2022 19:00:48
 
METAR
K6B0 
18nm SE 
012355Z AUTO 00000KT 10SM SCT050 M02/M05 A3027 RMK AO2 T10201046 10015 21022
KBTV 
22nm NE 
012354Z 33006KT 10SM BKN050 02/M07 A3028 RMK AO2 SLP259 60000 T00221072 10033 20011 53036
KPBG 
30nm N 
012353Z AUTO 00000KT 10SM FEW055 01/M08 A3028 RMK AO2 SLP257 60000 T00061083 10028 20000 53040
TAF
KBTV 
22nm NE 
011955Z 0120/0218 29016G27KT P6SM VCSH BKN045 FM012300 29016G25KT P6SM SCT050 FM020200 30009G15KT P6SM FEW090 FM020700 28006KT P6SM FEW160 FM021400 18007KT P6SM SCT170
NOTAMs
Click for the latest NOTAMs
NOTAMs are issued by the DoD/FAA and will open in a separate window not controlled by AirNav.

 

 
 

Would you like to see your business listed on this page?

 If your business provides an interesting product or service to pilots, flight crews, aircraft, or users of the Westport Airport, you should consider listing it here.  To start the listing process, click on the button below
 
Add a business
 

Other Pages about Westport Airport

Update a link
 
Copyright © AirNav, LLC. All rights reserved. Privacy Policy  Contact